Harrington, Delaware
Current Conditions -  °F | °C
As of 9:58 AM on Thursday 30 Oct 2014 (Local Time) from KDOV Reporting Station
Overcast Overcast  
Wind Chill: 50°   Ceiling: 7000
Heat Index: 50°   Visibility: 10mi
Dew Point: 50°   Wind: 12mph
Humidity: 100%   Direction: 310°NW
Pressure: 30.02"   Gusts: NA
Location:  38.92°N, 75.58°W
Report Text: KDOV 301358Z AUTO 31010KT 10SM OVC070 10/10 A3002 RMK AO2 SLP169 T01000100
Loading
Personal Weather Stations






























Interactive Weather Map
Tropical Storm Tracking
New forecast layout! Learn more

10-Day Weather Forecast

Advertisements
Track Severe Weather on mobile